19 Feb 2019 09:46 UTC 2019050+09:46 UTC

Overview Datums Bench Marks Data Query Site Visit Daily QC Messages Attributes

079: SALT08

27° 52' 14" N   97° 31' 3" W
SALT08
City of Corpus Christi Salinity Monitoring Salinity

Station Information

SALT08
SALT08
more pictures
 
Station Name:SALT08
DNR ID:079
Location:27° 52' 14" N, 97° 31' 3" W

Water Level Forecasts

Latest Observations

Series Metric English Marine Observed at
Water Temperature 16.5 °C 61.7 °F 61.7 °F Feb 19 03:36 CST
00h07m ago
Salinity 14.800 psu 14.800 psu 14.800 psu Feb 19 03:36 CST
00h07m ago

Maps

SALT08
All Stations in Area
Entire Network
 

Recent Observations

Date/Time Water
Temp (°F)
Sal (psu)
Feb 19 03:00 CST 61.9 14.800
Feb 19 02:00 CST 61.9 14.700
Feb 19 01:00 CST 61.9 14.600
Feb 19 00:00 CST 62.1 14.600
Feb 18 23:00 CST 62.4 14.700
Feb 18 22:00 CST 62.6 14.800
Feb 18 21:00 CST 62.8 14.900
Feb 18 20:00 CST 63.0 15.000
Feb 18 19:00 CST 62.6 15.100
Feb 18 18:00 CST 62.2 15.200
Feb 18 17:00 CST 62.2 15.300
Feb 18 16:00 CST 62.8 15.300
Feb 18 15:00 CST 62.8 15.200
Feb 18 14:00 CST 62.4 15.500
Feb 18 13:00 CST 60.3 15.700
Feb 18 12:00 CST 58.8 15.600
Feb 18 11:00 CST 58.1 15.500
Feb 18 10:00 CST 57.9 15.500
Feb 18 09:00 CST 58.1 15.400
Feb 18 08:00 CST 62.1 15.200
Feb 18 07:00 CST 63.1 15.000
Feb 18 06:00 CST 63.9 14.900
Feb 18 05:00 CST 64.0 15.000
Feb 18 04:00 CST 64.2 15.300
Feb 18 03:00 CST 64.9 15.300

Historical Data Availability